Terminal Aerodrome Forecast
Issued by NWS Topeka, KS

Current Version | Previous Version | Text Only | Print | Product List | Glossary On
Versions: 1 2 3 4 5 6 7 8 9 10 11 12 13 14
000
FTUS43 KTOP 010520
TAFTOP
TAF
KTOP 010520Z 0106/0206 08002KT P6SM BKN250
      TEMPO 0110/0113 5SM BR
     FM011600 01003KT P6SM SCT050=

USA.gov is the U.S. government's official web portal to all federal, state and local government web resources and services.